Time;durP1;ratioP1;P1;durP2;ratioP2;P2;SDS_P1;SDS_P2;PMS_P1;PMS_P2;Temp;Humidity;BMP_temperature;BMP_pressure;BME280_temperature;BME280_humidity;BME280_pressure;Samples;Min_cycle;Max_cycle;Signal;HPM_P1;HPM_P2
2022/05/07 00:01:25;;;;;;;3.00;2.80;;;;;;;;;;5036671;28;20254;-56
2022/05/07 00:04:12;;;;;;;2.77;2.57;;;;;;;;;;5034400;28;20290;-57
2022/05/07 00:06:59;;;;;;;3.23;3.03;;;;;;;;;;5031994;28;20577;-56
2022/05/07 00:09:47;;;;;;;2.80;2.60;;;;;;;;;;5033816;28;20292;-56
2022/05/07 00:12:34;;;;;;;3.00;2.80;;;;;;;;;;5031546;28;20291;-56
2022/05/07 00:15:21;;;;;;;3.07;2.87;;;;;;;;;;5032992;28;20677;-56
2022/05/07 00:18:10;;;;;;;2.87;2.67;;;;;;;;;;5036323;28;20219;-56
2022/05/07 00:20:57;;;;;;;2.80;2.60;;;;;;;;;;5034365;28;20212;-56
2022/05/07 00:23:45;;;;;;;2.97;2.70;;;;;;;;;;5027547;28;20694;-57
2022/05/07 00:26:33;;;;;;;2.70;2.60;;;;;;;;;;5029572;28;20679;-56
2022/05/07 00:29:20;;;;;;;2.70;2.53;;;;;;;;;;5032274;28;20325;-56
2022/05/07 00:32:08;;;;;;;2.50;2.40;;;;;;;;;;5033190;28;20200;-56
2022/05/07 00:34:55;;;;;;;2.83;2.63;;;;;;;;;;5031917;28;20204;-57
2022/05/07 00:37:42;;;;;;;2.50;2.40;;;;;;;;;;5030567;28;20232;-56
2022/05/07 00:40:29;;;;;;;2.60;2.40;;;;;;;;;;5035688;28;20690;-56
2022/05/07 00:43:17;;;;;;;2.30;2.20;;;;;;;;;;5033219;28;20746;-57
2022/05/07 00:46:05;;;;;;;3.07;2.87;;;;;;;;;;5029088;28;20564;-57
2022/05/07 00:48:53;;;;;;;2.60;2.50;;;;;;;;;;5028216;28;20748;-56
2022/05/07 00:51:39;;;;;;;2.27;2.17;;;;;;;;;;5030160;28;20342;-56
2022/05/07 00:54:25;;;;;;;2.50;2.40;;;;;;;;;;5029442;28;20604;-56
2022/05/07 00:57:13;;;;;;;2.30;2.20;;;;;;;;;;5029621;28;20290;-56
2022/05/07 01:00:03;;;;;;;2.50;2.30;;;;;;;;;;5032568;28;20624;-56
2022/05/07 01:02:50;;;;;;;2.50;2.30;;;;;;;;;;5029596;28;20577;-56
2022/05/07 01:05:37;;;;;;;2.43;2.33;;;;;;;;;;5030842;28;20253;-56
2022/05/07 01:08:25;;;;;;;2.20;2.10;;;;;;;;;;5030682;28;20319;-56
2022/05/07 01:11:12;;;;;;;2.77;2.57;;;;;;;;;;5032146;28;20609;-56
2022/05/07 01:14:00;;;;;;;3.00;2.27;;;;;;;;;;5029753;28;20339;-56
2022/05/07 01:16:48;;;;;;;2.50;2.17;;;;;;;;;;5028512;28;20558;-56
2022/05/07 01:19:35;;;;;;;2.30;2.20;;;;;;;;;;5030901;28;20629;-57
2022/05/07 01:22:23;;;;;;;2.13;2.03;;;;;;;;;;5032722;28;20291;-56
2022/05/07 01:25:10;;;;;;;2.27;2.17;;;;;;;;;;5030701;28;20291;-56
2022/05/07 01:27:57;;;;;;;2.30;2.20;;;;;;;;;;5029594;28;20299;-57
2022/05/07 01:30:44;;;;;;;2.20;2.10;;;;;;;;;;5029967;28;20291;-56
2022/05/07 01:33:33;;;;;;;2.00;1.90;;;;;;;;;;5031430;28;20291;-56
2022/05/07 01:36:20;;;;;;;2.20;2.10;;;;;;;;;;5029421;28;20210;-56
2022/05/07 01:39:08;;;;;;;2.57;2.37;;;;;;;;;;5033497;28;20239;-56
2022/05/07 01:41:55;;;;;;;2.23;2.10;;;;;;;;;;5031179;28;20257;-56
2022/05/07 01:44:42;;;;;;;2.33;2.10;;;;;;;;;;5031005;28;20348;-56
2022/05/07 01:50:33;;;;;;;2.20;2.10;;;;;;;;;;5030560;28;20219;-56
2022/05/07 01:53:22;;;;;;;2.30;2.20;;;;;;;;;;5028055;28;20322;-57
2022/05/07 01:56:10;;;;;;;2.50;2.30;;;;;;;;;;5035856;28;20286;-56
2022/05/07 01:58:57;;;;;;;2.50;2.40;;;;;;;;;;5029247;28;20299;-56
2022/05/07 02:01:44;;;;;;;2.30;2.20;;;;;;;;;;5029554;28;20291;-56
2022/05/07 02:04:31;;;;;;;2.50;2.40;;;;;;;;;;5031196;28;20819;-58
2022/05/07 02:07:18;;;;;;;2.17;2.07;;;;;;;;;;5034532;28;21262;-57
2022/05/07 02:10:06;;;;;;;2.20;2.10;;;;;;;;;;5042215;28;20761;-58
2022/05/07 02:12:54;;;;;;;2.20;2.10;;;;;;;;;;5036035;28;20204;-56
2022/05/07 02:15:41;;;;;;;1.90;1.80;;;;;;;;;;5035819;28;20216;-56
2022/05/07 02:18:28;;;;;;;2.57;2.40;;;;;;;;;;5036374;28;20270;-56
2022/05/07 02:21:15;;;;;;;2.57;2.30;;;;;;;;;;5035389;28;20320;-56
2022/05/07 02:24:02;;;;;;;2.07;1.97;;;;;;;;;;5035282;28;21266;-56
2022/05/07 02:26:49;;;;;;;2.23;2.13;;;;;;;;;;5038342;28;20265;-56
2022/05/07 02:29:37;;;;;;;1.93;1.83;;;;;;;;;;5035547;28;20721;-56
2022/05/07 02:32:24;;;;;;;2.10;2.00;;;;;;;;;;5035401;28;20201;-56
2022/05/07 02:35:11;;;;;;;1.90;1.80;;;;;;;;;;5039591;28;20200;-56
2022/05/07 02:37:58;;;;;;;2.10;2.00;;;;;;;;;;5035404;28;20207;-56
2022/05/07 02:43:49;;;;;;;1.60;1.60;;;;;;;;;;5036125;28;20219;-56
2022/05/07 02:46:38;;;;;;;1.97;1.87;;;;;;;;;;5033983;28;20295;-57
2022/05/07 02:49:25;;;;;;;1.70;1.70;;;;;;;;;;5033295;28;20236;-56
2022/05/07 02:52:11;;;;;;;1.83;1.73;;;;;;;;;;5036423;28;20243;-56
2022/05/07 02:54:58;;;;;;;1.63;1.53;;;;;;;;;;5033300;28;20835;-56
2022/05/07 02:57:46;;;;;;;1.77;1.70;;;;;;;;;;5036932;28;20530;-56
2022/05/07 03:00:34;;;;;;;1.60;1.50;;;;;;;;;;5035477;28;20270;-56
2022/05/07 03:03:22;;;;;;;2.00;1.90;;;;;;;;;;5035919;28;20239;-56
2022/05/07 03:06:09;;;;;;;1.77;1.67;;;;;;;;;;5036773;28;20233;-57
2022/05/07 03:08:56;;;;;;;1.47;1.47;;;;;;;;;;5038047;28;20392;-57
2022/05/07 03:11:44;;;;;;;1.50;1.50;;;;;;;;;;5035038;28;20208;-56
2022/05/07 03:14:31;;;;;;;1.77;1.67;;;;;;;;;;5034433;28;20213;-56
2022/05/07 03:17:18;;;;;;;1.70;1.60;;;;;;;;;;5035790;28;20277;-57
2022/05/07 03:20:09;;;;;;;1.20;1.20;;;;;;;;;;5033999;28;20209;-57
2022/05/07 03:22:58;;;;;;;1.63;1.53;;;;;;;;;;5031722;28;20672;-57
2022/05/07 03:25:45;;;;;;;1.47;1.37;;;;;;;;;;5031444;28;20278;-57
2022/05/07 03:28:32;;;;;;;1.40;1.30;;;;;;;;;;5031329;28;20210;-57
2022/05/07 03:31:19;;;;;;;1.20;1.20;;;;;;;;;;5033209;28;20270;-57
2022/05/07 03:34:08;;;;;;;1.23;1.23;;;;;;;;;;5030946;28;20714;-56
2022/05/07 03:36:56;;;;;;;1.33;1.33;;;;;;;;;;5034891;28;20236;-56
2022/05/07 03:39:43;;;;;;;1.10;1.10;;;;;;;;;;5034095;28;20299;-56
2022/05/07 03:42:33;;;;;;;0.90;0.90;;;;;;;;;;5032633;28;20299;-56
2022/05/07 03:45:20;;;;;;;1.40;1.30;;;;;;;;;;5035789;28;20250;-56
2022/05/07 03:48:08;;;;;;;1.00;1.00;;;;;;;;;;5034651;28;20255;-57
2022/05/07 03:50:55;;;;;;;1.10;1.00;;;;;;;;;;5032357;28;20224;-57
2022/05/07 03:53:43;;;;;;;0.77;0.77;;;;;;;;;;5037446;28;20228;-57
2022/05/07 03:56:30;;;;;;;0.90;0.90;;;;;;;;;;5031616;28;20291;-56
2022/05/07 03:59:16;;;;;;;0.80;0.80;;;;;;;;;;5031947;28;20209;-56
2022/05/07 04:02:04;;;;;;;1.20;1.03;;;;;;;;;;5031274;28;20299;-56
2022/05/07 04:04:51;;;;;;;0.87;0.87;;;;;;;;;;5030334;28;20208;-57
2022/05/07 04:07:38;;;;;;;0.73;0.73;;;;;;;;;;5035522;28;20211;-57
2022/05/07 04:10:26;;;;;;;0.83;0.83;;;;;;;;;;5030894;28;20232;-56
2022/05/07 04:13:14;;;;;;;0.90;0.90;;;;;;;;;;5037477;28;20291;-56
2022/05/07 04:16:01;;;;;;;1.03;1.03;;;;;;;;;;5033620;28;20208;-56
2022/05/07 04:18:48;;;;;;;0.87;0.87;;;;;;;;;;5029733;28;20693;-57
2022/05/07 04:21:37;;;;;;;0.80;0.80;;;;;;;;;;5032331;28;20351;-56
2022/05/07 04:24:24;;;;;;;0.93;0.93;;;;;;;;;;5029468;28;20223;-57
2022/05/07 04:27:13;;;;;;;0.83;0.83;;;;;;;;;;5030195;28;20252;-57
2022/05/07 04:30:00;;;;;;;0.80;0.80;;;;;;;;;;5028513;28;20264;-57
2022/05/07 04:32:47;;;;;;;1.10;0.80;;;;;;;;;;5031537;28;20277;-57
2022/05/07 04:35:34;;;;;;;0.90;0.90;;;;;;;;;;5032701;28;20673;-56
2022/05/07 04:38:21;;;;;;;0.80;0.80;;;;;;;;;;5030907;28;20264;-56
2022/05/07 04:41:08;;;;;;;0.73;0.73;;;;;;;;;;5031619;28;20263;-56
2022/05/07 04:43:56;;;;;;;0.80;0.80;;;;;;;;;;5031549;28;20658;-56
2022/05/07 04:46:43;;;;;;;0.90;0.90;;;;;;;;;;5040462;28;20215;-56
2022/05/07 04:49:30;;;;;;;0.63;0.63;;;;;;;;;;5030135;28;20784;-56
2022/05/07 04:52:17;;;;;;;0.80;0.80;;;;;;;;;;5028785;28;20576;-56
2022/05/07 04:55:05;;;;;;;0.90;0.90;;;;;;;;;;5030199;28;20312;-56
2022/05/07 04:57:52;;;;;;;0.90;0.83;;;;;;;;;;5034813;28;20332;-57
2022/05/07 05:00:40;;;;;;;2.47;0.90;;;;;;;;;;5032855;28;20201;-56
2022/05/07 05:03:27;;;;;;;0.60;0.60;;;;;;;;;;5030242;28;20219;-57
2022/05/07 05:06:14;;;;;;;0.73;0.73;;;;;;;;;;5030749;28;20212;-56
2022/05/07 05:09:01;;;;;;;0.60;0.60;;;;;;;;;;5028957;28;20246;-56
2022/05/07 05:11:48;;;;;;;0.80;0.80;;;;;;;;;;5033100;28;20208;-56
2022/05/07 05:17:41;;;;;;;0.77;0.77;;;;;;;;;;5032548;28;20248;-56
2022/05/07 05:20:28;;;;;;;0.80;0.80;;;;;;;;;;5031251;28;20302;-56
2022/05/07 05:23:14;;;;;;;0.67;0.67;;;;;;;;;;5031684;28;20287;-56
2022/05/07 05:26:01;;;;;;;0.77;0.77;;;;;;;;;;5031844;28;20271;-56
2022/05/07 05:28:50;;;;;;;0.60;0.60;;;;;;;;;;5031631;28;20287;-57
2022/05/07 05:31:37;;;;;;;0.70;0.70;;;;;;;;;;5032314;28;20295;-57
2022/05/07 05:34:25;;;;;;;0.70;0.70;;;;;;;;;;5030444;28;20678;-56
2022/05/07 05:37:12;;;;;;;0.93;0.73;;;;;;;;;;5030041;28;20311;-56
2022/05/07 05:39:59;;;;;;;0.97;0.87;;;;;;;;;;5027703;28;20338;-57
2022/05/07 05:42:46;;;;;;;0.70;0.70;;;;;;;;;;5027028;28;20838;-56
2022/05/07 05:45:33;;;;;;;0.80;0.80;;;;;;;;;;5029684;28;20311;-56
2022/05/07 05:48:20;;;;;;;1.00;0.83;;;;;;;;;;5032454;28;20248;-56
2022/05/07 05:51:08;;;;;;;0.83;0.83;;;;;;;;;;5027737;28;20729;-57
2022/05/07 05:53:55;;;;;;;0.83;0.83;;;;;;;;;;5030421;28;20647;-56
2022/05/07 05:56:42;;;;;;;0.73;0.73;;;;;;;;;;5027629;28;20259;-56
2022/05/07 05:59:29;;;;;;;0.80;0.80;;;;;;;;;;5031121;28;20249;-56
2022/05/07 06:02:18;;;;;;;1.10;0.77;;;;;;;;;;5033162;28;20687;-57
2022/05/07 06:05:06;;;;;;;0.60;0.60;;;;;;;;;;5026182;28;20567;-56
2022/05/07 06:07:54;;;;;;;1.10;1.00;;;;;;;;;;5026696;28;20274;-56
2022/05/07 06:10:41;;;;;;;0.67;0.67;;;;;;;;;;5031625;28;20226;-57
2022/05/07 06:13:28;;;;;;;0.90;0.83;;;;;;;;;;5029466;28;20300;-57
2022/05/07 06:16:17;;;;;;;0.70;0.70;;;;;;;;;;5028479;28;20216;-57
2022/05/07 06:19:04;;;;;;;0.93;0.93;;;;;;;;;;5030047;28;20219;-57
2022/05/07 06:21:51;;;;;;;1.17;1.13;;;;;;;;;;5029421;28;20615;-56
2022/05/07 06:27:43;;;;;;;1.10;1.00;;;;;;;;;;5033495;28;20677;-56
2022/05/07 06:30:30;;;;;;;1.20;1.10;;;;;;;;;;5029148;28;20314;-56
2022/05/07 06:33:17;;;;;;;1.07;0.97;;;;;;;;;;5027051;28;20220;-57
2022/05/07 06:36:05;;;;;;;0.97;0.97;;;;;;;;;;5029816;28;20201;-56
2022/05/07 06:38:52;;;;;;;1.10;0.90;;;;;;;;;;5034138;28;20293;-56
2022/05/07 06:41:41;;;;;;;1.60;1.10;;;;;;;;;;5028606;28;20204;-56
2022/05/07 06:44:28;;;;;;;1.57;0.90;;;;;;;;;;5028558;28;20217;-57
2022/05/07 06:47:16;;;;;;;1.40;1.30;;;;;;;;;;5025987;28;20247;-56
2022/05/07 06:50:03;;;;;;;0.70;0.70;;;;;;;;;;5027797;28;20239;-57
2022/05/07 06:52:50;;;;;;;1.27;1.17;;;;;;;;;;5031872;28;20340;-57
2022/05/07 06:55:54;;;;;;;1.13;1.03;;;;;;;;;;5032384;28;20291;-57
2022/05/07 06:58:43;;;;;;;1.33;1.20;;;;;;;;;;5033829;28;20216;-56
2022/05/07 07:01:30;;;;;;;1.30;1.20;;;;;;;;;;5031793;28;20324;-56
2022/05/07 07:04:17;;;;;;;1.10;1.00;;;;;;;;;;5033256;28;20287;-57
2022/05/07 07:07:05;;;;;;;1.30;1.20;;;;;;;;;;5039124;28;20283;-56
2022/05/07 07:09:52;;;;;;;1.53;1.17;;;;;;;;;;5033724;28;20275;-56
2022/05/07 07:12:40;;;;;;;0.90;0.90;;;;;;;;;;5035942;28;20622;-56
2022/05/07 07:15:28;;;;;;;1.47;1.33;;;;;;;;;;5028613;28;20665;-57
2022/05/07 07:18:15;;;;;;;1.67;1.57;;;;;;;;;;5033795;28;20224;-56
2022/05/07 07:21:02;;;;;;;2.13;1.93;;;;;;;;;;5029592;28;20688;-56
2022/05/07 07:23:49;;;;;;;1.90;1.40;;;;;;;;;;5033501;28;20275;-56
2022/05/07 07:26:36;;;;;;;1.90;1.30;;;;;;;;;;5031677;28;20209;-56
2022/05/07 07:29:23;;;;;;;1.40;1.30;;;;;;;;;;5033533;28;20333;-57
2022/05/07 07:32:11;;;;;;;2.73;1.20;;;;;;;;;;5037268;28;20217;-57
2022/05/07 07:34:58;;;;;;;3.20;1.70;;;;;;;;;;5033879;28;20321;-57
2022/05/07 07:37:46;;;;;;;1.53;1.40;;;;;;;;;;5030438;28;20911;-56
2022/05/07 07:40:32;;;;;;;1.50;1.40;;;;;;;;;;5029843;28;20202;-57
2022/05/07 07:43:20;;;;;;;1.50;1.40;;;;;;;;;;5030747;28;20341;-56
2022/05/07 07:49:12;;;;;;;2.17;1.70;;;;;;;;;;5033843;28;20237;-56
2022/05/07 07:51:59;;;;;;;1.20;1.13;;;;;;;;;;5034876;28;20241;-57
2022/05/07 07:54:46;;;;;;;1.50;1.40;;;;;;;;;;5030625;28;20209;-56
2022/05/07 07:57:33;;;;;;;2.60;1.63;;;;;;;;;;5033559;28;20202;-57
2022/05/07 08:00:20;;;;;;;1.60;1.50;;;;;;;;;;5031803;28;20209;-56
2022/05/07 08:03:11;;;;;;;1.70;1.60;;;;;;;;;;5033017;28;20391;-57
2022/05/07 08:06:00;;;;;;;1.63;1.53;;;;;;;;;;5031931;28;20310;-57
2022/05/07 08:11:55;;;;;;;1.20;0.90;;;;;;;;;;5036908;28;20754;-56
2022/05/07 08:14:42;;;;;;;3.20;1.50;;;;;;;;;;5032463;28;20286;-57
2022/05/07 08:17:29;;;;;;;1.80;1.70;;;;;;;;;;5032808;28;20295;-57
2022/05/07 08:20:16;;;;;;;2.03;1.60;;;;;;;;;;5031464;28;20290;-56
2022/05/07 08:23:04;;;;;;;2.17;1.60;;;;;;;;;;5033815;28;20201;-56
2022/05/07 08:25:52;;;;;;;2.57;1.40;;;;;;;;;;5033598;28;20206;-57
2022/05/07 08:28:40;;;;;;;1.73;1.43;;;;;;;;;;5029856;28;20689;-57
2022/05/07 08:31:27;;;;;;;1.70;1.60;;;;;;;;;;5027043;28;20279;-56
2022/05/07 08:34:13;;;;;;;2.17;1.80;;;;;;;;;;5033069;28;20209;-56
2022/05/07 08:37:00;;;;;;;1.90;1.43;;;;;;;;;;5029575;28;20589;-56
2022/05/07 08:39:49;;;;;;;1.30;1.20;;;;;;;;;;5030863;28;20304;-56
2022/05/07 08:42:36;;;;;;;1.40;1.30;;;;;;;;;;5032830;28;20295;-57
2022/05/07 08:45:24;;;;;;;2.13;1.63;;;;;;;;;;5029585;28;20206;-56
2022/05/07 08:48:11;;;;;;;1.50;1.40;;;;;;;;;;5032971;28;20243;-57
2022/05/07 08:50:58;;;;;;;1.47;1.37;;;;;;;;;;5026380;28;20228;-56
2022/05/07 08:53:48;;;;;;;1.50;1.30;;;;;;;;;;5029363;28;20618;-57
2022/05/07 08:56:36;;;;;;;1.53;1.27;;;;;;;;;;5032657;28;20254;-57
2022/05/07 08:59:23;;;;;;;1.33;1.23;;;;;;;;;;5029394;28;20297;-56
2022/05/07 09:02:11;;;;;;;1.60;1.50;;;;;;;;;;5032548;28;20239;-56
2022/05/07 09:04:58;;;;;;;1.60;1.50;;;;;;;;;;5036375;28;20236;-56
2022/05/07 09:07:52;;;;;;;1.37;1.27;;;;;;;;;;5031894;28;20298;-56
2022/05/07 09:10:41;;;;;;;1.43;1.33;;;;;;;;;;5029886;28;20230;-56
2022/05/07 09:13:35;;;;;;;1.37;1.27;;;;;;;;;;5032608;28;20213;-56
2022/05/07 09:16:22;;;;;;;2.30;1.40;;;;;;;;;;5031432;28;20300;-56
2022/05/07 09:19:23;;;;;;;1.27;1.17;;;;;;;;;;5032072;28;20215;-57
2022/05/07 09:22:11;;;;;;;1.40;1.30;;;;;;;;;;5028274;28;20241;-57
2022/05/07 09:24:58;;;;;;;1.63;1.53;;;;;;;;;;5030406;28;20553;-56
2022/05/07 09:27:46;;;;;;;1.60;1.50;;;;;;;;;;5028522;28;20404;-56
2022/05/07 09:30:35;;;;;;;1.67;1.30;;;;;;;;;;5029961;28;20221;-56
2022/05/07 09:33:31;;;;;;;1.40;1.30;;;;;;;;;;5034212;28;20656;-56
2022/05/07 09:36:18;;;;;;;1.53;1.43;;;;;;;;;;5032593;28;20214;-56
2022/05/07 09:39:05;;;;;;;1.10;1.10;;;;;;;;;;5030375;28;20576;-57
2022/05/07 09:41:55;;;;;;;1.53;1.43;;;;;;;;;;5028463;28;20296;-57
2022/05/07 09:44:43;;;;;;;1.33;1.20;;;;;;;;;;5037338;28;20220;-57
2022/05/07 09:47:33;;;;;;;1.23;1.13;;;;;;;;;;5030137;28;20301;-56
2022/05/07 09:50:25;;;;;;;1.40;1.17;;;;;;;;;;5031413;28;20214;-57
2022/05/07 09:59:22;;;;;;;1.57;1.47;;;;;;;;;;5028629;28;20209;-56
2022/05/07 10:02:22;;;;;;;1.40;1.30;;;;;;;;;;5029747;28;20208;-57
2022/05/07 10:05:29;;;;;;;1.27;1.03;;;;;;;;;;5029456;28;20212;-56
2022/05/07 10:08:27;;;;;;;1.73;1.20;;;;;;;;;;5030192;28;20261;-57
2022/05/07 10:11:16;;;;;;;1.20;1.20;;;;;;;;;;5028561;28;20275;-57
2022/05/07 10:14:03;;;;;;;1.50;1.20;;;;;;;;;;5029748;28;20208;-56
2022/05/07 10:16:57;;;;;;;1.33;1.10;;;;;;;;;;5033147;28;20236;-56
2022/05/07 10:19:45;;;;;;;1.33;1.30;;;;;;;;;;5029033;28;20236;-57
2022/05/07 10:22:33;;;;;;;1.23;1.13;;;;;;;;;;5032371;28;20249;-57
2022/05/07 10:25:20;;;;;;;1.20;1.20;;;;;;;;;;5035118;28;20292;-57
2022/05/07 10:28:09;;;;;;;1.50;1.10;;;;;;;;;;5030699;28;20830;-56
2022/05/07 10:30:56;;;;;;;1.20;1.10;;;;;;;;;;5032590;28;20220;-57
2022/05/07 10:33:43;;;;;;;1.10;1.10;;;;;;;;;;5032009;28;20629;-57
2022/05/07 10:36:35;;;;;;;1.00;1.00;;;;;;;;;;5032823;28;20283;-57
2022/05/07 10:39:23;;;;;;;1.17;0.97;;;;;;;;;;5032926;28;20282;-56
2022/05/07 10:42:17;;;;;;;1.93;1.40;;;;;;;;;;5035060;28;20282;-57
2022/05/07 10:45:06;;;;;;;1.07;1.00;;;;;;;;;;5033366;28;20208;-56
2022/05/07 10:47:54;;;;;;;1.10;0.93;;;;;;;;;;5032016;28;20760;-56
2022/05/07 10:50:50;;;;;;;1.20;1.10;;;;;;;;;;5030972;28;20209;-57
2022/05/07 10:53:38;;;;;;;1.13;1.03;;;;;;;;;;5032574;28;20279;-57
2022/05/07 10:56:26;;;;;;;1.30;1.20;;;;;;;;;;5028971;28;20346;-57
2022/05/07 10:59:13;;;;;;;1.30;1.20;;;;;;;;;;5029110;28;20334;-57
2022/05/07 11:02:05;;;;;;;1.43;1.33;;;;;;;;;;5034387;28;20218;-57
2022/05/07 11:04:52;;;;;;;1.13;1.03;;;;;;;;;;5031164;28;20199;-56
2022/05/07 11:07:40;;;;;;;1.37;1.27;;;;;;;;;;5032948;28;20207;-57
2022/05/07 11:10:27;;;;;;;1.10;0.90;;;;;;;;;;5029525;28;20205;-57
2022/05/07 11:13:19;;;;;;;1.23;1.13;;;;;;;;;;5031005;28;20665;-57
2022/05/07 11:16:07;;;;;;;1.10;1.10;;;;;;;;;;5031885;28;20208;-56
2022/05/07 11:18:55;;;;;;;1.30;1.20;;;;;;;;;;5031938;28;20236;-57
2022/05/07 11:21:46;;;;;;;1.33;1.23;;;;;;;;;;5032521;28;20358;-57
2022/05/07 11:24:34;;;;;;;1.10;1.00;;;;;;;;;;5031672;28;20209;-57
2022/05/07 11:27:21;;;;;;;1.20;1.10;;;;;;;;;;5032135;28;20240;-56
2022/05/07 11:30:12;;;;;;;1.20;1.10;;;;;;;;;;5031022;28;20215;-57
2022/05/07 11:33:05;;;;;;;1.77;1.43;;;;;;;;;;5032574;28;20228;-57
2022/05/07 11:36:01;;;;;;;1.07;1.03;;;;;;;;;;5033894;28;20339;-57
2022/05/07 11:38:57;;;;;;;1.60;1.20;;;;;;;;;;5036290;28;20302;-56
2022/05/07 11:41:53;;;;;;;1.00;1.00;;;;;;;;;;5032600;28;20212;-56
2022/05/07 11:47:54;;;;;;;0.97;0.97;;;;;;;;;;5034815;28;20211;-57
2022/05/07 11:50:50;;;;;;;1.77;1.17;;;;;;;;;;5032261;28;20209;-57
2022/05/07 11:53:38;;;;;;;1.10;0.97;;;;;;;;;;5030904;28;20239;-57
2022/05/07 11:56:25;;;;;;;1.17;1.07;;;;;;;;;;5035762;28;20295;-57
2022/05/07 11:59:11;;;;;;;1.20;1.03;;;;;;;;;;5031170;28;20655;-57
2022/05/07 12:01:58;;;;;;;0.90;0.90;;;;;;;;;;5030572;28;20232;-56
2022/05/07 12:04:47;;;;;;;1.77;1.20;;;;;;;;;;5038243;28;20211;-57
2022/05/07 12:07:39;;;;;;;1.37;1.10;;;;;;;;;;5035509;28;20209;-57
2022/05/07 12:10:27;;;;;;;1.30;1.20;;;;;;;;;;5036094;28;20306;-57
2022/05/07 12:13:15;;;;;;;1.00;0.77;;;;;;;;;;5035713;28;20211;-56
2022/05/07 12:19:06;;;;;;;1.10;1.00;;;;;;;;;;5028843;28;20691;-57
2022/05/07 12:31:09;;;;;;;1.07;0.97;;;;;;;;;;5031369;28;20617;-56
2022/05/07 12:33:56;;;;;;;1.10;1.00;;;;;;;;;;5032903;28;20659;-57
2022/05/07 12:36:43;;;;;;;0.87;0.87;;;;;;;;;;5037112;28;20289;-57
2022/05/07 12:39:32;;;;;;;1.13;0.97;;;;;;;;;;5031626;28;20370;-56
2022/05/07 12:42:19;;;;;;;1.53;1.13;;;;;;;;;;5032015;28;20317;-58
2022/05/07 12:45:07;;;;;;;0.90;0.90;;;;;;;;;;5032835;28;20215;-56
2022/05/07 12:47:54;;;;;;;1.27;0.97;;;;;;;;;;5029261;28;20239;-56
2022/05/07 12:50:41;;;;;;;1.00;0.90;;;;;;;;;;5019042;28;20274;-56
2022/05/07 12:53:28;;;;;;;1.30;1.20;;;;;;;;;;5023193;28;20311;-56
2022/05/07 12:56:16;;;;;;;1.53;1.03;;;;;;;;;;5020315;28;20288;-57
2022/05/07 12:59:03;;;;;;;0.80;0.80;;;;;;;;;;5020588;28;20536;-57
2022/05/07 13:01:50;;;;;;;1.33;1.10;;;;;;;;;;5019892;28;20204;-57
2022/05/07 13:04:37;;;;;;;1.33;1.10;;;;;;;;;;5020792;28;20248;-56
2022/05/07 13:07:24;;;;;;;0.93;0.90;;;;;;;;;;5020998;28;20815;-56
2022/05/07 13:10:11;;;;;;;1.67;1.00;;;;;;;;;;5022496;28;20208;-57
2022/05/07 13:13:00;;;;;;;0.80;0.80;;;;;;;;;;5015749;28;20754;-56
2022/05/07 13:15:47;;;;;;;0.80;0.80;;;;;;;;;;5013219;28;20691;-56
2022/05/07 13:18:35;;;;;;;1.17;0.87;;;;;;;;;;5020745;28;20743;-57
2022/05/07 13:21:22;;;;;;;1.00;1.00;;;;;;;;;;5010720;28;20209;-57
2022/05/07 13:24:11;;;;;;;1.50;1.10;;;;;;;;;;5019168;28;20209;-57
2022/05/07 13:26:58;;;;;;;1.33;1.00;;;;;;;;;;5013654;28;20215;-56
2022/05/07 13:29:46;;;;;;;0.93;0.93;;;;;;;;;;5014102;28;20283;-56
2022/05/07 13:32:34;;;;;;;0.90;0.90;;;;;;;;;;5020886;28;20318;-56
2022/05/07 13:35:22;;;;;;;0.90;0.90;;;;;;;;;;5016878;28;20219;-57
2022/05/07 13:38:09;;;;;;;1.27;1.00;;;;;;;;;;5011786;28;20216;-57
2022/05/07 13:40:56;;;;;;;1.10;0.90;;;;;;;;;;5010869;28;20288;-57
2022/05/07 13:43:43;;;;;;;1.03;0.90;;;;;;;;;;5014407;28;20269;-57
2022/05/07 13:46:31;;;;;;;0.80;0.80;;;;;;;;;;5012690;28;20219;-57
2022/05/07 13:49:18;;;;;;;1.03;0.97;;;;;;;;;;5024013;28;20386;-57
2022/05/07 13:52:06;;;;;;;0.80;0.80;;;;;;;;;;5029120;28;20223;-56
2022/05/07 13:54:53;;;;;;;1.00;0.90;;;;;;;;;;5030693;28;20265;-57
2022/05/07 13:57:40;;;;;;;1.00;0.90;;;;;;;;;;5029998;28;20684;-56
2022/05/07 14:00:28;;;;;;;1.10;0.97;;;;;;;;;;5027977;28;20787;-57
2022/05/07 14:03:16;;;;;;;0.83;0.83;;;;;;;;;;5031441;28;20662;-57
2022/05/07 14:06:04;;;;;;;0.80;0.80;;;;;;;;;;5029789;28;20291;-57
2022/05/07 14:08:51;;;;;;;0.80;0.80;;;;;;;;;;5029255;28;20217;-56
2022/05/07 14:11:38;;;;;;;0.70;0.70;;;;;;;;;;5024323;28;20245;-56
2022/05/07 14:14:27;;;;;;;1.07;1.00;;;;;;;;;;5024046;28;20196;-56
2022/05/07 14:17:14;;;;;;;0.70;0.70;;;;;;;;;;5024293;28;20334;-57
2022/05/07 14:20:03;;;;;;;0.80;0.80;;;;;;;;;;5029046;28;20236;-57
2022/05/07 14:22:50;;;;;;;1.03;0.90;;;;;;;;;;5028559;28;20204;-57
2022/05/07 14:25:37;;;;;;;0.90;0.90;;;;;;;;;;5027896;28;20283;-57
2022/05/07 14:28:24;;;;;;;0.80;0.80;;;;;;;;;;5034240;28;20282;-56
2022/05/07 14:31:11;;;;;;;0.70;0.70;;;;;;;;;;5026751;28;20744;-57
2022/05/07 14:34:00;;;;;;;0.83;0.83;;;;;;;;;;5028681;28;20283;-56
2022/05/07 14:36:49;;;;;;;0.90;0.90;;;;;;;;;;5027524;28;20295;-57
2022/05/07 14:39:36;;;;;;;0.80;0.80;;;;;;;;;;5030086;28;20287;-56
2022/05/07 14:42:23;;;;;;;1.90;0.70;;;;;;;;;;5027120;28;20197;-56
2022/05/07 14:45:11;;;;;;;0.93;0.87;;;;;;;;;;5029306;28;20215;-56
2022/05/07 14:47:59;;;;;;;0.83;0.83;;;;;;;;;;5030387;28;20350;-57
2022/05/07 14:50:46;;;;;;;3.03;1.07;;;;;;;;;;5022886;28;20284;-56
2022/05/07 14:53:34;;;;;;;0.70;0.70;;;;;;;;;;5031425;28;20237;-57
2022/05/07 14:56:21;;;;;;;0.80;0.80;;;;;;;;;;5030988;28;20212;-56
2022/05/07 14:59:09;;;;;;;0.80;0.80;;;;;;;;;;5032143;28;20272;-56
2022/05/07 15:01:56;;;;;;;0.80;0.80;;;;;;;;;;5027576;28;20660;-57
2022/05/07 15:04:43;;;;;;;1.10;0.90;;;;;;;;;;5027611;28;20243;-57
2022/05/07 15:07:30;;;;;;;1.00;1.00;;;;;;;;;;5024649;28;20288;-56
2022/05/07 15:13:26;;;;;;;0.90;0.90;;;;;;;;;;5030791;28;20227;-56
2022/05/07 15:16:13;;;;;;;0.80;0.80;;;;;;;;;;5030739;28;20220;-58
2022/05/07 15:19:00;;;;;;;1.00;1.00;;;;;;;;;;5033495;28;20217;-57
2022/05/07 15:21:47;;;;;;;1.67;1.00;;;;;;;;;;5037089;28;20252;-57
2022/05/07 15:24:34;;;;;;;0.80;0.80;;;;;;;;;;5036690;28;20208;-57
2022/05/07 15:27:22;;;;;;;0.73;0.73;;;;;;;;;;5036491;28;20343;-57
2022/05/07 15:30:10;;;;;;;0.80;0.80;;;;;;;;;;5032785;28;20695;-57
2022/05/07 15:39:06;;;;;;;1.23;0.87;;;;;;;;;;5038071;28;20737;-56
2022/05/07 15:41:53;;;;;;;0.60;0.60;;;;;;;;;;5038005;28;20392;-57
2022/05/07 15:44:41;;;;;;;1.00;0.93;;;;;;;;;;5035613;28;20286;-57
2022/05/07 15:47:28;;;;;;;0.97;0.97;;;;;;;;;;5031255;28;20228;-56
2022/05/07 15:50:16;;;;;;;0.90;0.90;;;;;;;;;;5033887;28;20299;-56
2022/05/07 15:53:03;;;;;;;0.80;0.80;;;;;;;;;;5030258;28;20288;-56
2022/05/07 15:55:50;;;;;;;0.90;0.90;;;;;;;;;;5031639;28;20281;-56
2022/05/07 15:58:37;;;;;;;0.70;0.70;;;;;;;;;;5030669;28;20265;-56
2022/05/07 16:01:25;;;;;;;0.87;0.60;;;;;;;;;;5030327;28;20582;-57
2022/05/07 16:04:14;;;;;;;1.30;0.93;;;;;;;;;;5032795;28;20697;-56
2022/05/07 16:07:03;;;;;;;1.23;0.80;;;;;;;;;;5031435;28;20752;-56
2022/05/07 16:09:50;;;;;;;1.77;0.80;;;;;;;;;;5035604;28;20284;-57
2022/05/07 16:12:37;;;;;;;1.10;0.90;;;;;;;;;;5033710;28;20281;-57
2022/05/07 16:15:24;;;;;;;0.67;0.67;;;;;;;;;;5028932;28;20690;-56
2022/05/07 16:18:13;;;;;;;0.87;0.87;;;;;;;;;;5031456;28;20288;-57
2022/05/07 16:21:00;;;;;;;0.63;0.63;;;;;;;;;;5030105;28;20209;-56
2022/05/07 16:26:51;;;;;;;0.73;0.73;;;;;;;;;;5026831;28;20224;-56
2022/05/07 16:29:38;;;;;;;1.37;0.70;;;;;;;;;;5028523;28;20216;-56
2022/05/07 16:32:25;;;;;;;0.80;0.80;;;;;;;;;;5032146;28;20288;-56
2022/05/07 16:35:13;;;;;;;2.23;1.10;;;;;;;;;;5029086;28;20289;-57
2022/05/07 16:38:00;;;;;;;1.80;0.70;;;;;;;;;;5029150;28;20767;-57
2022/05/07 16:40:47;;;;;;;1.00;1.00;;;;;;;;;;5035803;28;20241;-57
2022/05/07 16:43:34;;;;;;;0.80;0.80;;;;;;;;;;5029478;28;20348;-57
2022/05/07 16:46:21;;;;;;;0.60;0.60;;;;;;;;;;5028295;28;20288;-57
2022/05/07 16:49:08;;;;;;;1.03;0.80;;;;;;;;;;5031065;28;20278;-56
2022/05/07 16:51:56;;;;;;;0.60;0.60;;;;;;;;;;5032751;28;20221;-56
2022/05/07 16:54:43;;;;;;;0.73;0.73;;;;;;;;;;5029545;28;20340;-57
2022/05/07 16:57:30;;;;;;;0.60;0.60;;;;;;;;;;5031120;28;20240;-56
2022/05/07 17:00:20;;;;;;;0.70;0.70;;;;;;;;;;5032475;28;20789;-56
2022/05/07 17:03:09;;;;;;;0.60;0.60;;;;;;;;;;5032208;28;20194;-56
2022/05/07 17:05:56;;;;;;;0.63;0.63;;;;;;;;;;5030887;28;20217;-56
2022/05/07 17:08:44;;;;;;;0.80;0.80;;;;;;;;;;5029335;28;20605;-56
2022/05/07 17:11:31;;;;;;;0.70;0.70;;;;;;;;;;5030169;28;20250;-56
2022/05/07 17:14:18;;;;;;;0.77;0.77;;;;;;;;;;5032604;28;20748;-57
2022/05/07 17:17:05;;;;;;;0.80;0.80;;;;;;;;;;5028920;28;20249;-56
2022/05/07 17:19:53;;;;;;;0.80;0.80;;;;;;;;;;5029203;28;20232;-56
2022/05/07 17:22:40;;;;;;;1.07;1.00;;;;;;;;;;5032558;28;20355;-56
2022/05/07 17:25:31;;;;;;;0.87;0.70;;;;;;;;;;5033433;28;20248;-56
2022/05/07 17:28:18;;;;;;;0.80;0.80;;;;;;;;;;5027809;28;20205;-58
2022/05/07 17:31:05;;;;;;;0.50;0.50;;;;;;;;;;5037759;28;20296;-56
2022/05/07 17:33:52;;;;;;;0.80;0.80;;;;;;;;;;5031009;28;20322;-56
2022/05/07 17:36:39;;;;;;;0.70;0.70;;;;;;;;;;5030622;28;20250;-56
2022/05/07 17:39:26;;;;;;;0.57;0.57;;;;;;;;;;5031267;28;20221;-56